Time;durP1;ratioP1;P1;durP2;ratioP2;P2;SDS_P1;SDS_P2;PMS_P1;PMS_P2;Temp;Humidity;BMP_temperature;BMP_pressure;BME280_temperature;BME280_humidity;BME280_pressure;Samples;Min_cycle;Max_cycle;Signal;HPM_P1;HPM_P2
2021/01/29 00:00:12;;;;;;;4.13;3.30;;;13.10;70.30;;;;;;5093211;28;20044;-80
2021/01/29 00:02:40;;;;;;;3.63;3.03;;;13.10;69.80;;;;;;5110386;28;20040;-80
2021/01/29 00:05:09;;;;;;;3.47;2.88;;;13.10;70.10;;;;;;5093365;28;20034;-80
2021/01/29 00:07:35;;;;;;;3.72;2.97;;;13.10;70.20;;;;;;5093018;28;20066;-81
2021/01/29 00:10:04;;;;;;;4.43;3.53;;;13.10;70.30;;;;;;5093101;28;20028;-79
2021/01/29 00:12:30;;;;;;;4.78;3.75;;;13.10;70.00;;;;;;5110041;28;20039;-80
2021/01/29 00:14:58;;;;;;;4.15;3.30;;;13.10;70.30;;;;;;5092829;28;20040;-79
2021/01/29 00:17:24;;;;;;;4.90;3.40;;;13.10;70.80;;;;;;5109986;28;20039;-79
2021/01/29 00:19:50;;;;;;;4.80;3.30;;;13.10;70.40;;;;;;5075688;28;20027;-77
2021/01/29 00:22:16;;;;;;;5.25;3.58;;;13.10;70.50;;;;;;5094034;28;20039;-80
2021/01/29 00:24:44;;;;;;;4.75;3.67;;;13.10;70.60;;;;;;5109975;28;20050;-80
2021/01/29 00:27:10;;;;;;;3.42;3.00;;;13.10;70.00;;;;;;5092846;28;20055;-79
2021/01/29 00:29:38;;;;;;;4.07;3.67;;;13.10;70.00;;;;;;5092689;28;20484;-80
2021/01/29 00:32:04;;;;;;;5.47;3.95;;;13.10;70.20;;;;;;5093849;28;20020;-79
2021/01/29 00:34:30;;;;;;;4.57;3.60;;;13.10;69.90;;;;;;5092872;28;20073;-83
2021/01/29 00:36:56;;;;;;;5.22;3.80;;;13.10;70.00;;;;;;5093011;28;20040;-82
2021/01/29 00:39:22;;;;;;;6.05;4.10;;;13.10;70.40;;;;;;5109661;28;20135;-81
2021/01/29 00:41:49;;;;;;;4.85;3.83;;;13.10;70.30;;;;;;5093838;28;20071;-81
2021/01/29 00:44:15;;;;;;;4.72;3.53;;;13.00;70.20;;;;;;5092467;28;20068;-81
2021/01/29 00:46:41;;;;;;;5.90;3.97;;;13.00;70.40;;;;;;5092552;28;20082;-81
2021/01/29 00:49:07;;;;;;;5.30;3.83;;;13.00;70.20;;;;;;5092357;28;20052;-81
2021/01/29 00:51:33;;;;;;;5.72;4.22;;;13.00;70.00;;;;;;5093125;28;20027;-82
2021/01/29 00:53:59;;;;;;;5.45;4.13;;;13.00;70.30;;;;;;5092225;28;20078;-79
2021/01/29 00:56:32;;;;;;;5.05;4.03;;;13.00;70.30;;;;;;5092619;28;20129;-82
2021/01/29 00:59:07;;;;;;;5.63;3.87;;;13.00;70.40;;;;;;5107516;28;20031;-80
2021/01/29 01:02:04;;;;;;;5.38;4.13;;;13.00;70.60;;;;;;5092446;28;20290;-80
2021/01/29 01:04:38;;;;;;;5.82;3.90;;;13.00;70.60;;;;;;5108462;28;20107;-81
2021/01/29 01:07:04;;;;;;;7.20;4.47;;;13.00;70.70;;;;;;5092089;28;20085;-80
2021/01/29 01:09:59;;;;;;;6.25;4.78;;;13.10;70.60;;;;;;5073929;28;20028;-81
2021/01/29 01:12:45;;;;;;;6.68;4.60;;;13.00;70.40;;;;;;5106178;28;20093;-80
2021/01/29 01:15:23;;;;;;;8.03;4.50;;;13.10;70.30;;;;;;5092429;28;20042;-78
2021/01/29 01:17:59;;;;;;;6.57;4.75;;;13.00;70.30;;;;;;5109128;28;20266;-79
2021/01/29 01:20:51;;;;;;;8.38;5.40;;;13.00;70.50;;;;;;5089715;28;20064;-79
2021/01/29 01:23:19;;;;;;;7.03;4.57;;;13.00;70.60;;;;;;5092002;28;20401;-80
2021/01/29 01:25:46;;;;;;;5.82;4.88;;;13.00;70.70;;;;;;5091913;28;20024;-79
2021/01/29 01:28:26;;;;;;;5.82;4.55;;;13.00;70.60;;;;;;5077225;28;20051;-79
2021/01/29 01:31:13;;;;;;;7.30;4.97;;;13.00;70.70;;;;;;5109259;28;20056;-79
2021/01/29 01:33:47;;;;;;;5.50;4.53;;;13.00;70.60;;;;;;5076164;28;20027;-78
2021/01/29 01:36:31;;;;;;;7.22;4.90;;;13.00;71.10;;;;;;5091888;28;20067;-79
2021/01/29 01:39:18;;;;;;;6.95;5.07;;;13.00;71.10;;;;;;5092859;28;20406;-80
2021/01/29 01:41:44;;;;;;;6.93;4.90;;;12.90;70.80;;;;;;5074719;28;20047;-79
2021/01/29 01:44:38;;;;;;;6.88;5.00;;;13.00;70.80;;;;;;5091957;28;20028;-78
2021/01/29 01:47:24;;;;;;;6.93;4.55;;;13.00;70.60;;;;;;5092331;28;20414;-78
2021/01/29 01:50:32;;;;;;;6.18;4.28;;;13.00;70.30;;;;;;5093477;28;20419;-78
2021/01/29 01:53:01;;;;;;;6.60;5.05;;;13.00;70.90;;;;;;5091316;28;20241;-77
2021/01/29 01:56:13;;;;;;;7.45;5.10;;;13.00;70.70;;;;;;5091666;28;20024;-77
2021/01/29 01:59:17;;;;;;;8.10;5.35;;;13.00;70.60;;;;;;5069458;28;20372;-78
2021/01/29 02:02:24;;;;;;;8.88;5.05;;;13.00;70.20;;;;;;5091562;28;20035;-78
2021/01/29 02:05:14;;;;;;;8.38;5.38;;;13.00;70.50;;;;;;5110552;28;20043;-78
2021/01/29 02:07:53;;;;;;;7.82;5.28;;;13.00;70.60;;;;;;5095475;28;20126;-77
2021/01/29 02:10:38;;;;;;;7.40;4.82;;;13.00;70.60;;;;;;5097239;28;20502;-80
2021/01/29 02:13:09;;;;;;;7.00;4.78;;;13.00;70.50;;;;;;5095569;28;20089;-79
2021/01/29 02:15:42;;;;;;;8.48;5.28;;;13.00;70.80;;;;;;5112590;28;20028;-80
2021/01/29 02:18:29;;;;;;;6.35;4.60;;;13.00;71.10;;;;;;5078352;28;20085;-79
2021/01/29 02:21:31;;;;;;;8.43;5.20;;;12.90;70.30;;;;;;5095287;28;20090;-78
2021/01/29 02:24:39;;;;;;;8.27;4.70;;;12.90;70.20;;;;;;5096343;28;20039;-79
2021/01/29 02:27:58;;;;;;;5.93;4.32;;;12.90;70.50;;;;;;5102094;28;20032;-77
2021/01/29 02:31:23;;;;;;;6.93;4.60;;;12.90;70.40;;;;;;5088147;28;20519;-79
2021/01/29 02:34:17;;;;;;;6.95;4.22;;;12.90;69.90;;;;;;5095296;28;20043;-79
2021/01/29 02:37:23;;;;;;;5.90;4.50;;;12.90;70.00;;;;;;5094837;28;20028;-79
2021/01/29 02:40:08;;;;;;;5.90;3.97;;;12.90;69.60;;;;;;5080293;28;20126;-79
2021/01/29 02:43:00;;;;;;;5.00;3.78;;;12.80;69.80;;;;;;5094510;28;20145;-78
2021/01/29 02:45:58;;;;;;;6.57;4.18;;;12.80;70.30;;;;;;5110301;28;20088;-79
2021/01/29 02:48:53;;;;;;;5.93;4.35;;;12.80;70.40;;;;;;5094681;28;20024;-81
2021/01/29 02:51:31;;;;;;;5.35;4.07;;;12.80;70.10;;;;;;5111415;28;20055;-82
2021/01/29 02:54:51;;;;;;;6.63;4.40;;;12.80;70.10;;;;;;5109823;28;20073;-80
2021/01/29 02:58:01;;;;;;;6.80;4.68;;;12.80;70.00;;;;;;5091516;28;20137;-80
2021/01/29 03:01:18;;;;;;;6.20;4.40;;;12.80;70.20;;;;;;5109535;28;20449;-79
2021/01/29 03:03:59;;;;;;;6.82;4.53;;;12.80;70.30;;;;;;5074876;28;20092;-78
2021/01/29 03:07:05;;;;;;;5.25;4.50;;;12.90;70.40;;;;;;5108582;28;20469;-80
2021/01/29 03:09:37;;;;;;;4.53;4.13;;;12.80;70.60;;;;;;5094958;28;20077;-79
2021/01/29 03:12:34;;;;;;;4.97;4.28;;;12.80;70.30;;;;;;5096001;28;20038;-78
2021/01/29 03:15:24;;;;;;;4.93;4.43;;;12.80;70.30;;;;;;5095757;28;20510;-79
2021/01/29 03:18:27;;;;;;;7.60;4.60;;;12.90;70.10;;;;;;5085330;28;20036;-77
2021/01/29 03:21:16;;;;;;;4.50;3.97;;;12.80;70.10;;;;;;5109359;28;20047;-76
2021/01/29 03:24:19;;;;;;;5.95;4.07;;;12.80;70.10;;;;;;5095821;28;20039;-78
2021/01/29 03:27:13;;;;;;;4.40;4.00;;;12.80;69.90;;;;;;5094277;28;20586;-78
2021/01/29 03:30:04;;;;;;;6.82;4.38;;;12.80;70.30;;;;;;5109344;28;20085;-80
2021/01/29 03:32:51;;;;;;;4.82;4.30;;;12.80;70.20;;;;;;5108837;28;20459;-74
2021/01/29 03:35:44;;;;;;;6.05;5.25;;;12.80;70.60;;;;;;5094326;28;20046;-79
2021/01/29 03:38:53;;;;;;;5.45;4.50;;;12.70;70.10;;;;;;5094528;28;20024;-78
2021/01/29 03:41:44;;;;;;;6.35;4.25;;;12.80;69.60;;;;;;5108336;28;20431;-82
2021/01/29 03:44:48;;;;;;;5.43;4.38;;;12.70;70.10;;;;;;5090686;28;20483;-82
2021/01/29 03:47:46;;;;;;;6.45;5.05;;;12.80;69.80;;;;;;5095042;28;20039;-84
2021/01/29 03:50:55;;;;;;;6.43;4.95;;;12.70;69.60;;;;;;5108561;28;20054;-79
2021/01/29 03:53:57;;;;;;;5.32;4.57;;;12.70;69.10;;;;;;5095163;28;20544;-78
2021/01/29 03:56:56;;;;;;;6.85;4.60;;;12.70;69.70;;;;;;5094948;28;20096;-79
2021/01/29 03:59:55;;;;;;;6.15;4.60;;;12.70;69.90;;;;;;5094560;28;20047;-84
2021/01/29 04:03:25;;;;;;;5.47;4.72;;;12.70;69.70;;;;;;5105209;28;20044;-82
2021/01/29 04:06:38;;;;;;;6.85;3.65;;;12.70;69.70;;;;;;5072175;28;20115;-77
2021/01/29 04:10:00;;;;;;;4.78;4.28;;;12.70;69.50;;;;;;5071837;28;20041;-77
2021/01/29 04:13:08;;;;;;;5.82;4.55;;;12.70;70.00;;;;;;5082992;28;20036;-77
2021/01/29 04:15:43;;;;;;;5.88;4.85;;;12.70;69.80;;;;;;5110408;28;20059;-76
2021/01/29 04:18:32;;;;;;;5.10;4.50;;;12.70;69.40;;;;;;5093505;28;20024;-77
2021/01/29 04:21:09;;;;;;;5.95;4.47;;;12.70;69.20;;;;;;5093049;28;20039;-78
2021/01/29 04:23:58;;;;;;;4.57;3.85;;;12.70;69.50;;;;;;5110227;28;20059;-78
2021/01/29 04:26:32;;;;;;;7.18;4.32;;;12.60;69.80;;;;;;5093433;28;20103;-83
2021/01/29 04:29:07;;;;;;;5.70;4.30;;;12.60;69.50;;;;;;5111397;28;20031;-78
2021/01/29 04:31:35;;;;;;;5.63;4.68;;;12.60;69.80;;;;;;5093030;28;20024;-80
2021/01/29 04:34:20;;;;;;;5.97;4.75;;;12.60;69.40;;;;;;5092649;28;20019;-77
2021/01/29 04:36:51;;;;;;;6.50;4.70;;;12.60;69.40;;;;;;5092892;28;20028;-78
2021/01/29 04:39:26;;;;;;;5.75;4.70;;;12.60;69.60;;;;;;5109728;28;20124;-82
2021/01/29 04:42:10;;;;;;;6.85;4.90;;;12.60;69.30;;;;;;5094259;28;20089;-81
2021/01/29 04:45:09;;;;;;;7.07;5.35;;;12.60;69.50;;;;;;5092517;28;20384;-83
2021/01/29 04:48:01;;;;;;;5.43;4.90;;;12.60;69.60;;;;;;5039287;28;20127;-82
2021/01/29 04:50:49;;;;;;;5.88;5.03;;;12.50;69.10;;;;;;5092490;28;20024;-83
2021/01/29 04:53:58;;;;;;;7.07;4.85;;;12.60;69.50;;;;;;5092686;28;20514;-85
2021/01/29 04:56:42;;;;;;;6.78;5.35;;;12.50;69.50;;;;;;5109640;28;20113;-83
2021/01/29 04:59:29;;;;;;;7.03;4.82;;;12.50;69.40;;;;;;5092574;28;20538;-81
2021/01/29 05:02:55;;;;;;;5.80;4.78;;;12.50;69.20;;;;;;5093480;28;20495;-82
2021/01/29 05:05:59;;;;;;;6.53;4.70;;;12.50;69.90;;;;;;5075647;28;20113;-81
2021/01/29 05:09:09;;;;;;;5.57;4.55;;;12.50;69.70;;;;;;5092649;28;20127;-78
2021/01/29 05:12:03;;;;;;;6.13;4.72;;;12.50;69.60;;;;;;5107120;28;20120;-83
2021/01/29 05:15:06;;;;;;;5.40;4.70;;;12.50;69.70;;;;;;5107734;28;20027;-79
2021/01/29 05:18:08;;;;;;;4.43;4.03;;;12.50;68.50;;;;;;5093399;28;20452;-80
2021/01/29 05:20:37;;;;;;;5.43;3.97;;;12.50;68.60;;;;;;5093204;28;20490;-79
2021/01/29 05:23:29;;;;;;;4.70;4.18;;;12.50;68.80;;;;;;5091919;28;20047;-82
2021/01/29 05:26:13;;;;;;;4.68;4.20;;;12.50;69.70;;;;;;5093900;28;20032;-79
2021/01/29 05:28:48;;;;;;;4.50;3.92;;;12.50;69.50;;;;;;5093148;28;20089;-75
2021/01/29 05:31:34;;;;;;;5.88;3.85;;;12.50;69.20;;;;;;5093016;28;20516;-75
2021/01/29 05:34:27;;;;;;;6.13;4.68;;;12.50;69.80;;;;;;5092018;28;20036;-79
2021/01/29 05:36:56;;;;;;;5.78;4.53;;;12.50;69.00;;;;;;5092785;28;20032;-78
2021/01/29 05:39:31;;;;;;;4.93;4.43;;;12.50;69.50;;;;;;5093394;28;20032;-76
2021/01/29 05:42:12;;;;;;;5.50;4.65;;;12.50;69.30;;;;;;5092655;28;20047;-79
2021/01/29 05:44:51;;;;;;;5.63;4.60;;;12.50;69.00;;;;;;5091910;28;20357;-75
2021/01/29 05:47:52;;;;;;;5.75;4.78;;;12.50;69.40;;;;;;5108495;28;20128;-75
2021/01/29 05:50:50;;;;;;;6.28;4.53;;;12.50;69.70;;;;;;5092916;28;20028;-75
2021/01/29 05:53:31;;;;;;;5.50;4.65;;;12.50;69.20;;;;;;5091679;28;20032;-76
2021/01/29 05:56:16;;;;;;;6.22;4.55;;;12.40;69.20;;;;;;5093281;28;20036;-75
2021/01/29 05:59:02;;;;;;;6.22;5.00;;;12.50;69.50;;;;;;5091652;28;20059;-75
2021/01/29 06:01:46;;;;;;;6.60;5.03;;;12.40;69.40;;;;;;5091399;28;20063;-75
2021/01/29 06:04:24;;;;;;;8.07;5.57;;;12.50;69.00;;;;;;5092711;28;20075;-75
2021/01/29 06:07:18;;;;;;;5.45;4.40;;;12.50;69.00;;;;;;5091630;28;20031;-76
2021/01/29 06:10:06;;;;;;;7.30;5.53;;;12.50;69.20;;;;;;5091569;28;20028;-74
2021/01/29 06:13:00;;;;;;;8.95;6.18;;;12.40;69.00;;;;;;5091587;28;20036;-75
2021/01/29 06:15:31;;;;;;;7.97;5.97;;;12.40;69.30;;;;;;5108513;28;20088;-75
2021/01/29 06:18:09;;;;;;;6.80;5.50;;;12.40;69.30;;;;;;5092718;28;20024;-76
2021/01/29 06:21:09;;;;;;;9.38;6.38;;;12.40;69.40;;;;;;5108237;28;20359;-74
2021/01/29 06:23:47;;;;;;;8.52;5.82;;;12.40;69.20;;;;;;5108291;28;20123;-75
2021/01/29 06:26:42;;;;;;;8.32;6.90;;;12.40;69.50;;;;;;5092497;28;20020;-76
2021/01/29 06:29:28;;;;;;;10.30;6.95;;;12.40;69.30;;;;;;5074333;28;20039;-76
2021/01/29 06:32:12;;;;;;;;;;;12.40;69.80;;;;;;5108922;28;20059;-76
2021/01/29 06:35:40;;;;;;;12.93;7.65;;;12.40;69.20;;;;;;5091298;28;19911;-78
2021/01/29 06:38:27;;;;;;;11.10;7.05;;;12.40;68.30;;;;;;5070390;28;20540;-74
2021/01/29 06:41:17;;;;;;;11.27;7.18;;;12.30;68.00;;;;;;5090936;28;20139;-74
2021/01/29 06:43:58;;;;;;;11.35;7.55;;;12.30;68.20;;;;;;5108040;28;20035;-76
2021/01/29 06:46:31;;;;;;;11.30;7.30;;;12.30;67.90;;;;;;5091075;28;20028;-76
2021/01/29 06:49:33;;;;;;;11.57;7.88;;;12.20;67.90;;;;;;5092501;28;20414;-76
2021/01/29 06:52:46;;;;;;;11.57;7.32;;;12.20;67.90;;;;;;5096119;28;20043;-77
2021/01/29 06:55:40;;;;;;;12.18;7.38;;;12.20;67.80;;;;;;5096053;28;20118;-76
2021/01/29 06:58:06;;;;;;;11.65;7.80;;;12.20;67.90;;;;;;5111648;28;20028;-78
2021/01/29 07:01:04;;;;;;;10.75;7.22;;;12.10;67.80;;;;;;5095990;28;20349;-75
2021/01/29 07:03:44;;;;;;;13.18;7.95;;;12.10;67.80;;;;;;5095765;28;20486;-76
2021/01/29 07:06:28;;;;;;;13.07;8.48;;;12.10;68.00;;;;;;5096342;28;20341;-77
2021/01/29 07:09:10;;;;;;;13.80;8.60;;;12.10;67.40;;;;;;5111676;28;20050;-76
2021/01/29 07:12:02;;;;;;;16.05;9.27;;;12.10;67.50;;;;;;5094699;28;20094;-76
2021/01/29 07:15:02;;;;;;;14.88;9.82;;;12.10;67.80;;;;;;5085649;28;20472;-75
2021/01/29 07:17:47;;;;;;;14.38;9.88;;;12.10;67.70;;;;;;5095831;28;20028;-77
2021/01/29 07:20:34;;;;;;;16.38;10.07;;;12.10;67.60;;;;;;5094402;28;20379;-76
2021/01/29 07:23:24;;;;;;;17.20;10.52;;;12.00;67.50;;;;;;5095340;28;20040;-76
2021/01/29 07:26:18;;;;;;;18.05;10.52;;;12.00;68.30;;;;;;5093768;28;20379;-77
2021/01/29 07:29:10;;;;;;;16.60;9.48;;;12.10;69.10;;;;;;5085839;28;20032;-76
2021/01/29 07:31:53;;;;;;;16.92;9.35;;;12.10;69.50;;;;;;5095703;28;20036;-77
2021/01/29 07:35:05;;;;;;;15.90;9.07;;;12.20;69.50;;;;;;5095384;28;20467;-76
2021/01/29 07:37:57;;;;;;;17.33;10.00;;;12.20;69.80;;;;;;5089549;28;20119;-76
2021/01/29 07:40:38;;;;;;;16.85;9.88;;;12.20;69.80;;;;;;5093786;28;20028;-75
2021/01/29 07:43:07;;;;;;;17.52;10.25;;;12.20;70.20;;;;;;5095528;28;20036;-85
2021/01/29 07:45:58;;;;;;;16.35;10.57;;;12.20;69.80;;;;;;5095134;28;20032;-82
2021/01/29 07:48:57;;;;;;;18.60;9.80;;;12.30;70.10;;;;;;5094862;28;20472;-87
2021/01/29 07:51:51;;;;;;;15.70;10.02;;;12.30;69.80;;;;;;5093852;28;20036;-81
2021/01/29 07:54:47;;;;;;;17.60;10.52;;;12.30;70.00;;;;;;5095268;28;20054;-79
2021/01/29 07:57:22;;;;;;;16.45;10.15;;;12.30;70.10;;;;;;5094929;28;20039;-81
2021/01/29 08:00:00;;;;;;;19.70;11.05;;;12.40;70.00;;;;;;5095131;28;20038;-81
2021/01/29 08:02:58;;;;;;;17.55;10.68;;;12.30;70.00;;;;;;5094306;28;20028;-84
2021/01/29 08:05:33;;;;;;;18.08;10.32;;;12.40;69.90;;;;;;5094837;28;20119;-81
2021/01/29 08:08:11;;;;;;;18.10;10.20;;;12.40;70.10;;;;;;5093282;28;20024;-80
2021/01/29 08:10:40;;;;;;;18.08;10.77;;;12.40;70.10;;;;;;5093381;28;20093;-82
2021/01/29 08:13:31;;;;;;;16.15;10.75;;;12.40;70.30;;;;;;5076438;28;20452;-81
2021/01/29 08:15:59;;;;;;;17.85;10.23;;;12.40;70.60;;;;;;5093307;28;20035;-79
2021/01/29 08:18:35;;;;;;;15.50;9.65;;;12.40;70.60;;;;;;5092996;28;20028;-77
2021/01/29 08:21:34;;;;;;;16.83;10.35;;;12.40;71.20;;;;;;5109974;28;20028;-77
2021/01/29 08:24:06;;;;;;;15.77;10.05;;;12.40;71.80;;;;;;5094119;28;20149;-78
2021/01/29 08:27:02;;;;;;;13.80;8.70;;;12.50;72.20;;;;;;5076200;28;20028;-77
2021/01/29 08:29:46;;;;;;;14.25;8.60;;;12.60;72.60;;;;;;5093349;28;20020;-77
2021/01/29 08:32:48;;;;;;;14.85;8.90;;;12.60;72.80;;;;;;5092888;28;20085;-78
2021/01/29 08:35:24;;;;;;;15.07;8.90;;;12.60;73.40;;;;;;5093522;28;20040;-77
2021/01/29 08:37:50;;;;;;;13.70;8.63;;;12.60;73.50;;;;;;5093396;28;20028;-77
2021/01/29 08:40:35;;;;;;;12.20;8.68;;;12.60;73.80;;;;;;5092453;28;20465;-79
2021/01/29 08:43:38;;;;;;;13.93;9.03;;;12.60;74.10;;;;;;5092754;28;20089;-81
2021/01/29 08:46:20;;;;;;;15.68;9.57;;;12.60;74.30;;;;;;5094172;28;20584;-80
2021/01/29 08:49:01;;;;;;;13.80;9.27;;;12.70;74.20;;;;;;5093008;28;20439;-77
2021/01/29 08:52:04;;;;;;;13.52;8.68;;;12.60;74.40;;;;;;5109414;28;20376;-76
2021/01/29 08:55:04;;;;;;;11.98;8.15;;;12.70;75.00;;;;;;5093866;28;20368;-77
2021/01/29 08:57:35;;;;;;;13.10;8.95;;;12.70;75.00;;;;;;5092169;28;20575;-76
2021/01/29 09:00:04;;;;;;;15.93;9.02;;;12.80;75.10;;;;;;5109751;28;20406;-78
2021/01/29 09:02:59;;;;;;;14.20;10.02;;;12.80;75.10;;;;;;5093522;28;20078;-78
2021/01/29 09:05:28;;;;;;;11.38;8.13;;;12.90;75.60;;;;;;5075169;28;20032;-76
2021/01/29 09:08:04;;;;;;;14.77;9.35;;;12.90;75.50;;;;;;5092250;28;20460;-80
2021/01/29 09:10:42;;;;;;;13.18;8.15;;;12.90;75.50;;;;;;5094052;28;20030;-78
2021/01/29 09:13:15;;;;;;;14.27;8.60;;;12.90;75.70;;;;;;5091776;28;20085;-78
2021/01/29 09:16:06;;;;;;;14.88;8.85;;;12.90;75.60;;;;;;5092072;28;20156;-80
2021/01/29 09:18:46;;;;;;;16.25;10.00;;;12.90;75.70;;;;;;5109192;28;20051;-78
2021/01/29 09:21:15;;;;;;;13.90;9.18;;;12.90;75.60;;;;;;5091822;28;20032;-75
2021/01/29 09:24:18;;;;;;;13.93;9.70;;;12.90;75.70;;;;;;5093382;28;20024;-76
2021/01/29 09:27:05;;;;;;;14.65;9.73;;;12.90;75.60;;;;;;5093017;28;20024;-78
2021/01/29 09:29:51;;;;;;;12.93;8.73;;;13.00;75.20;;;;;;5108922;28;20518;-78
2021/01/29 09:32:43;;;;;;;13.23;8.25;;;13.00;75.10;;;;;;5092503;28;20065;-77
2021/01/29 09:35:14;;;;;;;12.40;9.30;;;13.00;75.20;;;;;;5082610;28;20032;-76
2021/01/29 09:37:52;;;;;;;13.90;9.70;;;13.10;74.80;;;;;;5108756;28;20036;-77
2021/01/29 09:40:29;;;;;;;13.27;8.65;;;13.10;74.80;;;;;;5109126;28;20039;-80
2021/01/29 09:42:59;;;;;;;14.65;9.23;;;13.10;74.70;;;;;;5091921;28;20036;-77
2021/01/29 09:45:27;;;;;;;11.48;8.32;;;13.10;74.20;;;;;;5108407;28;20036;-77
2021/01/29 09:48:02;;;;;;;12.60;8.98;;;13.20;74.20;;;;;;5074910;28;20056;-77
2021/01/29 09:50:31;;;;;;;12.07;8.38;;;13.20;74.30;;;;;;5091889;28;20027;-76
2021/01/29 09:53:06;;;;;;;11.63;9.10;;;13.20;74.20;;;;;;5092940;28;20061;-78
2021/01/29 09:55:36;;;;;;;12.57;8.60;;;13.20;74.00;;;;;;5092380;28;20371;-79
2021/01/29 09:58:25;;;;;;;13.40;9.20;;;13.20;74.10;;;;;;5093040;28;20020;-75
2021/01/29 10:01:14;;;;;;;11.40;8.40;;;13.30;74.10;;;;;;5093121;28;20052;-75
2021/01/29 10:04:16;;;;;;;13.15;8.57;;;13.30;74.00;;;;;;5091584;28;20024;-77
2021/01/29 10:06:48;;;;;;;12.82;8.48;;;13.30;73.90;;;;;;5068883;28;20024;-75
2021/01/29 10:09:20;;;;;;;12.77;9.15;;;13.30;73.80;;;;;;5093079;28;20350;-76
2021/01/29 10:11:58;;;;;;;11.88;8.90;;;13.30;74.10;;;;;;5092083;28;20082;-76
2021/01/29 10:14:39;;;;;;;10.82;7.93;;;13.30;73.70;;;;;;5092684;28;20487;-75
2021/01/29 10:17:22;;;;;;;11.75;7.55;;;13.20;73.90;;;;;;5108235;28;20035;-74
2021/01/29 10:20:13;;;;;;;11.52;8.32;;;13.20;74.00;;;;;;5092870;28;20024;-76
2021/01/29 10:23:00;;;;;;;12.68;8.50;;;13.20;73.90;;;;;;5092066;28;20097;-75
2021/01/29 10:25:55;;;;;;;12.25;8.25;;;13.30;74.20;;;;;;5095692;28;20080;-76
2021/01/29 10:28:41;;;;;;;10.40;7.78;;;13.20;74.20;;;;;;5095381;28;20024;-75
2021/01/29 10:31:08;;;;;;;;;;;13.20;74.30;;;;;;5095785;28;20392;-74
2021/01/29 10:33:37;;;;;;;10.65;7.78;;;13.20;74.40;;;;;;5096469;28;19939;-76
2021/01/29 10:36:08;;;;;;;10.70;7.35;;;13.20;74.10;;;;;;5095460;28;20092;-81
2021/01/29 10:38:59;;;;;;;9.52;7.45;;;13.20;74.00;;;;;;5094924;28;20043;-75
2021/01/29 10:41:47;;;;;;;10.15;7.13;;;13.20;74.20;;;;;;5112069;28;20104;-78
2021/01/29 10:44:29;;;;;;;10.13;7.78;;;13.20;74.10;;;;;;5096030;28;20036;-75
2021/01/29 10:47:11;;;;;;;9.95;6.85;;;13.20;74.00;;;;;;5096823;28;20028;-75
2021/01/29 10:49:49;;;;;;;8.93;7.10;;;13.30;74.20;;;;;;5095378;28;20043;-77
2021/01/29 10:52:40;;;;;;;10.70;7.50;;;13.30;74.40;;;;;;5112099;28;20028;-75
2021/01/29 10:55:29;;;;;;;8.85;7.05;;;13.30;74.30;;;;;;5094855;28;20116;-76
2021/01/29 10:58:27;;;;;;;7.97;6.07;;;13.40;74.30;;;;;;5094687;28;20024;-76
2021/01/29 11:00:56;;;;;;;9.23;6.38;;;13.40;74.30;;;;;;5095660;28;20042;-77
2021/01/29 11:03:50;;;;;;;9.02;6.55;;;13.40;74.40;;;;;;5095903;28;20024;-78
2021/01/29 11:06:20;;;;;;;9.05;6.53;;;13.40;74.30;;;;;;5095838;28;20058;-77
2021/01/29 11:08:52;;;;;;;9.05;7.40;;;13.40;74.30;;;;;;5094416;28;20032;-76
2021/01/29 11:11:37;;;;;;;8.82;6.93;;;13.40;74.40;;;;;;5094239;28;20035;-77
2021/01/29 11:14:06;;;;;;;7.88;6.50;;;13.40;74.40;;;;;;5094741;28;20024;-77
2021/01/29 11:16:44;;;;;;;8.60;6.57;;;13.40;74.50;;;;;;5094678;28;20084;-76
2021/01/29 11:19:23;;;;;;;7.93;6.82;;;13.50;74.50;;;;;;5111305;28;20040;-75
2021/01/29 11:22:08;;;;;;;8.00;5.95;;;13.40;74.40;;;;;;5095179;28;20172;-75
2021/01/29 11:24:59;;;;;;;8.70;6.28;;;13.50;74.80;;;;;;5094283;28;20020;-75
2021/01/29 11:27:45;;;;;;;7.88;6.30;;;13.50;74.80;;;;;;5095978;28;20531;-74
2021/01/29 11:30:24;;;;;;;7.18;5.53;;;13.50;75.00;;;;;;5111788;28;20106;-75
2021/01/29 11:32:57;;;;;;;7.50;5.60;;;13.50;75.00;;;;;;5095411;28;20024;-75
2021/01/29 11:35:29;;;;;;;8.75;5.80;;;13.50;75.10;;;;;;5094005;28;20024;-74
2021/01/29 11:37:58;;;;;;;8.32;6.05;;;13.40;75.20;;;;;;5095059;28;20116;-74
2021/01/29 11:40:29;;;;;;;6.95;5.45;;;13.50;75.00;;;;;;5095265;28;20035;-76
2021/01/29 11:43:31;;;;;;;6.35;5.70;;;13.50;74.40;;;;;;5096307;28;20040;-74
2021/01/29 11:46:15;;;;;;;6.47;5.15;;;13.50;74.20;;;;;;5087762;28;20071;-76
2021/01/29 11:49:03;;;;;;;5.90;4.68;;;13.50;74.20;;;;;;5111853;28;20363;-76
2021/01/29 11:51:39;;;;;;;7.78;5.13;;;13.40;74.20;;;;;;5093452;28;20031;-77
2021/01/29 11:54:33;;;;;;;5.90;4.45;;;13.50;74.30;;;;;;5093750;28;20085;-74
2021/01/29 11:57:13;;;;;;;5.82;4.70;;;13.40;73.80;;;;;;5094790;28;20028;-75
2021/01/29 11:59:50;;;;;;;6.15;4.60;;;13.50;73.30;;;;;;5110778;28;20546;-74
2021/01/29 12:02:23;;;;;;;4.85;4.10;;;13.50;73.80;;;;;;5093518;28;20036;-76
2021/01/29 12:05:34;;;;;;;4.47;3.95;;;13.40;73.60;;;;;;5110960;28;20075;-76
2021/01/29 12:08:06;;;;;;;4.53;3.67;;;13.40;73.40;;;;;;5080121;28;20032;-75
2021/01/29 12:10:39;;;;;;;5.72;3.70;;;13.40;73.20;;;;;;5094463;28;20024;-76
2021/01/29 12:13:19;;;;;;;4.25;3.70;;;13.40;73.00;;;;;;5093339;28;20047;-76
2021/01/29 12:15:57;;;;;;;4.18;3.50;;;13.40;73.10;;;;;;5093206;28;20372;-75
2021/01/29 12:18:26;;;;;;;4.07;3.67;;;13.40;73.20;;;;;;5094120;28;20024;-74
2021/01/29 12:21:17;;;;;;;4.57;3.80;;;13.40;72.50;;;;;;5110465;28;20121;-75
2021/01/29 12:24:22;;;;;;;4.70;4.03;;;13.40;72.90;;;;;;5094215;28;20044;-75
2021/01/29 12:27:08;;;;;;;4.15;3.40;;;13.40;73.10;;;;;;5083031;28;20354;-75
2021/01/29 12:29:49;;;;;;;4.43;4.03;;;13.30;73.00;;;;;;5094374;28;20455;-74
2021/01/29 12:32:21;;;;;;;4.78;3.58;;;13.40;72.90;;;;;;5094166;28;20103;-75
2021/01/29 12:34:58;;;;;;;4.28;3.88;;;13.30;72.90;;;;;;5094298;28;20028;-75
2021/01/29 12:37:28;;;;;;;4.72;3.72;;;13.40;72.20;;;;;;5092952;28;20027;-75
2021/01/29 12:40:00;;;;;;;4.03;3.40;;;13.40;72.60;;;;;;5094503;28;20027;-75
2021/01/29 12:43:06;;;;;;;5.13;3.20;;;13.40;72.50;;;;;;5092345;28;20044;-76
2021/01/29 12:45:42;;;;;;;4.32;3.60;;;13.40;72.50;;;;;;5093601;28;20036;-76
2021/01/29 12:48:40;;;;;;;3.40;3.10;;;13.40;72.60;;;;;;5091840;28;20476;-77
2021/01/29 12:51:27;;;;;;;4.22;3.33;;;13.40;72.50;;;;;;5094305;28;20039;-76
2021/01/29 12:54:44;;;;;;;3.40;3.10;;;13.30;72.10;;;;;;5093190;28;20023;-75
2021/01/29 12:57:19;;;;;;;3.30;2.88;;;13.30;72.00;;;;;;5083908;28;20048;-75
2021/01/29 12:59:50;;;;;;;3.65;3.10;;;13.30;72.30;;;;;;5092298;28;20071;-76
2021/01/29 13:02:26;;;;;;;3.95;2.90;;;13.30;72.30;;;;;;5093424;28;20063;-76
2021/01/29 13:05:14;;;;;;;3.65;3.05;;;13.30;72.40;;;;;;5109265;28;20089;-76
2021/01/29 13:07:58;;;;;;;3.38;3.00;;;13.30;72.10;;;;;;5075399;28;20395;-75
2021/01/29 13:10:55;;;;;;;2.83;2.63;;;13.30;72.20;;;;;;5092361;28;20040;-77
2021/01/29 13:13:42;;;;;;;3.75;2.60;;;13.30;71.90;;;;;;5093534;28;20054;-76
2021/01/29 13:16:11;;;;;;;4.68;2.72;;;13.30;71.90;;;;;;5093521;28;20054;-75
2021/01/29 13:18:48;;;;;;;2.72;2.50;;;13.30;71.80;;;;;;5108959;28;20461;-74
2021/01/29 13:21:22;;;;;;;4.45;2.72;;;13.30;71.90;;;;;;5109065;28;20042;-74
2021/01/29 13:23:49;;;;;;;3.78;2.75;;;13.30;71.90;;;;;;5093331;28;20089;-74
2021/01/29 13:26:29;;;;;;;2.95;2.65;;;13.30;72.00;;;;;;5093022;28;20032;-74
2021/01/29 13:29:04;;;;;;;2.53;2.33;;;13.30;72.10;;;;;;5093557;28;20028;-74
2021/01/29 13:31:36;;;;;;;2.63;2.35;;;13.30;72.30;;;;;;5108941;28;20058;-75
2021/01/29 13:34:10;;;;;;;3.70;2.72;;;13.30;72.60;;;;;;5091828;28;20031;-76
2021/01/29 13:36:38;;;;;;;2.50;2.30;;;13.30;72.60;;;;;;5092978;28;20032;-75
2021/01/29 13:39:23;;;;;;;2.85;2.50;;;13.30;72.50;;;;;;5093056;28;20023;-75
2021/01/29 13:42:20;;;;;;;3.13;2.75;;;13.30;72.70;;;;;;5091333;28;20527;-74
2021/01/29 13:44:52;;;;;;;7.75;2.60;;;13.30;72.30;;;;;;5091077;28;20536;-74
2021/01/29 13:47:26;;;;;;;2.65;2.45;;;13.30;72.20;;;;;;5109384;28;20063;-75
2021/01/29 13:49:55;;;;;;;2.95;2.63;;;13.30;72.10;;;;;;5108990;28;20032;-75
2021/01/29 13:52:25;;;;;;;3.67;3.00;;;13.30;71.60;;;;;;5108386;28;20032;-75
2021/01/29 13:54:53;;;;;;;2.72;2.53;;;13.30;71.90;;;;;;5092169;28;20069;-74
2021/01/29 13:57:33;;;;;;;3.08;2.63;;;13.30;71.90;;;;;;5093418;28;20438;-75
2021/01/29 14:00:21;;;;;;;2.65;2.45;;;13.30;71.70;;;;;;5112899;28;20035;-75
2021/01/29 14:03:07;;;;;;;3.45;3.00;;;13.30;71.40;;;;;;5095468;28;20028;-75
2021/01/29 14:05:33;;;;;;;;;;;13.20;71.50;;;;;;5113263;28;20423;-75
2021/01/29 14:08:05;;;;;;;2.60;2.40;;;13.30;71.70;;;;;;5096842;28;19954;-75
2021/01/29 14:10:35;;;;;;;2.65;2.33;;;13.30;71.80;;;;;;5112681;28;20035;-76